Time;durP1;ratioP1;P1;durP2;ratioP2;P2;SDS_P1;SDS_P2;PMS_P1;PMS_P2;Temp;Humidity;BMP_temperature;BMP_pressure;BME280_temperature;BME280_humidity;BME280_pressure;Samples;Min_cycle;Max_cycle;Signal;HPM_P1;HPM_P2
2023/04/14 00:01:49;;;;;;;16.73;5.05;;;;;;;;;;5034956;28;20052;-57
2023/04/14 00:04:15;;;;;;;12.48;4.95;;;;;;;;;;5034605;28;20045;-57
2023/04/14 00:06:42;;;;;;;11.82;4.32;;;;;;;;;;5043646;28;20041;-57
2023/04/14 00:09:09;;;;;;;11.05;4.93;;;;;;;;;;5043847;28;20036;-56
2023/04/14 00:11:35;;;;;;;13.73;4.70;;;;;;;;;;5039617;28;21272;-56
2023/04/14 00:14:02;;;;;;;14.35;5.50;;;;;;;;;;5042648;28;20028;-57
2023/04/14 00:16:31;;;;;;;14.30;5.05;;;;;;;;;;5043251;28;20037;-57
2023/04/14 00:18:57;;;;;;;11.80;4.60;;;;;;;;;;5033766;28;20045;-58
2023/04/14 00:21:23;;;;;;;12.43;4.80;;;;;;;;;;5035655;28;20045;-57
2023/04/14 00:23:49;;;;;;;16.63;4.68;;;;;;;;;;5037491;28;20522;-57
2023/04/14 00:26:15;;;;;;;10.73;4.20;;;;;;;;;;5036868;28;20034;-57
2023/04/14 00:28:43;;;;;;;12.52;4.63;;;;;;;;;;5036955;28;20045;-57
2023/04/14 00:31:10;;;;;;;9.85;3.83;;;;;;;;;;5035756;28;20391;-57
2023/04/14 00:33:36;;;;;;;12.75;4.38;;;;;;;;;;5038742;28;20056;-57
2023/04/14 00:36:02;;;;;;;11.52;4.35;;;;;;;;;;5035066;28;20037;-57
2023/04/14 00:38:29;;;;;;;10.00;4.05;;;;;;;;;;5031109;28;20048;-57
2023/04/14 00:40:55;;;;;;;22.13;5.20;;;;;;;;;;5033807;28;20060;-56
2023/04/14 00:43:21;;;;;;;10.95;4.13;;;;;;;;;;5037571;28;20033;-57
2023/04/14 00:45:49;;;;;;;10.02;4.20;;;;;;;;;;5038295;28;20041;-57
2023/04/14 00:48:17;;;;;;;15.25;3.75;;;;;;;;;;5038544;28;20407;-57
2023/04/14 00:50:45;;;;;;;12.88;5.10;;;;;;;;;;5038203;28;20048;-57
2023/04/14 00:53:12;;;;;;;12.05;4.13;;;;;;;;;;5048737;28;20444;-56
2023/04/14 00:55:40;;;;;;;18.27;4.65;;;;;;;;;;5043255;28;20395;-56
2023/04/14 00:58:06;;;;;;;12.23;4.07;;;;;;;;;;5049400;28;20045;-57
2023/04/14 01:00:36;;;;;;;11.90;4.40;;;;;;;;;;5050193;28;20047;-57
2023/04/14 01:03:02;;;;;;;14.27;5.07;;;;;;;;;;5040757;28;20021;-57
2023/04/14 01:05:28;;;;;;;16.45;4.47;;;;;;;;;;5050102;28;20025;-58
2023/04/14 01:07:55;;;;;;;13.57;5.00;;;;;;;;;;5047286;28;20041;-57
2023/04/14 01:10:29;;;;;;;11.57;4.05;;;;;;;;;;5041804;28;20033;-58
2023/04/14 01:13:40;;;;;;;18.58;4.30;;;;;;;;;;5029623;28;20044;-57
2023/04/14 01:16:17;;;;;;;18.95;4.65;;;;;;;;;;5047445;28;20146;-57
2023/04/14 01:19:22;;;;;;;11.85;4.35;;;;;;;;;;5047234;28;20045;-56
2023/04/14 01:21:53;;;;;;;14.25;4.53;;;;;;;;;;5012683;28;20068;-57
2023/04/14 01:24:41;;;;;;;14.18;4.47;;;;;;;;;;5038288;28;20029;-56
2023/04/14 01:27:45;;;;;;;13.18;3.78;;;;;;;;;;5037239;28;20040;-56
2023/04/14 01:30:30;;;;;;;18.35;4.18;;;;;;;;;;5040677;28;20033;-57
2023/04/14 01:33:00;;;;;;;15.13;4.20;;;;;;;;;;5040190;28;20037;-58
2023/04/14 01:35:41;;;;;;;13.48;4.72;;;;;;;;;;5041611;28;20037;-56
2023/04/14 01:38:17;;;;;;;22.80;7.30;;;;;;;;;;5042371;28;20049;-57
2023/04/14 01:40:49;;;;;;;34.10;12.32;;;;;;;;;;5028115;28;20665;-58
2023/04/14 01:43:19;;;;;;;36.35;12.85;;;;;;;;;;5042762;28;20406;-57
2023/04/14 01:45:50;;;;;;;24.02;10.77;;;;;;;;;;5039893;28;20086;-57
2023/04/14 01:48:16;;;;;;;28.08;8.35;;;;;;;;;;5042024;28;20040;-58
2023/04/14 01:50:45;;;;;;;15.50;5.65;;;;;;;;;;5044131;28;20430;-57
2023/04/14 01:53:15;;;;;;;10.50;4.40;;;;;;;;;;5037777;28;20045;-57
2023/04/14 01:55:43;;;;;;;9.35;4.00;;;;;;;;;;5038518;28;20040;-57
2023/04/14 01:58:10;;;;;;;10.80;4.18;;;;;;;;;;5048487;28;20044;-57
2023/04/14 02:00:39;;;;;;;12.65;3.75;;;;;;;;;;5042676;28;20040;-57
2023/04/14 02:03:06;;;;;;;10.57;3.90;;;;;;;;;;5045569;28;20047;-54
2023/04/14 02:05:34;;;;;;;9.95;4.00;;;;;;;;;;5048693;28;20410;-58
2023/04/14 02:08:04;;;;;;;13.00;4.00;;;;;;;;;;5046316;28;20391;-57
2023/04/14 02:10:31;;;;;;;11.07;3.83;;;;;;;;;;5043504;28;20507;-57
2023/04/14 02:12:59;;;;;;;12.32;4.00;;;;;;;;;;5046878;28;20044;-58
2023/04/14 02:15:27;;;;;;;9.45;3.85;;;;;;;;;;5045050;28;20041;-57
2023/04/14 02:17:55;;;;;;;12.85;4.13;;;;;;;;;;5044757;28;20514;-56
2023/04/14 02:20:22;;;;;;;11.77;3.92;;;;;;;;;;5042906;28;20049;-57
2023/04/14 02:22:48;;;;;;;13.15;4.07;;;;;;;;;;5045204;28;20495;-57
2023/04/14 02:25:14;;;;;;;13.48;3.83;;;;;;;;;;5045827;28;20809;-58
2023/04/14 02:28:01;;;;;;;7.82;3.75;;;;;;;;;;5046818;28;20045;-56
2023/04/14 02:30:38;;;;;;;10.68;3.55;;;;;;;;;;5048527;28;20495;-58
2023/04/14 02:33:09;;;;;;;12.20;3.75;;;;;;;;;;5040919;28;20615;-59
2023/04/14 02:35:47;;;;;;;9.32;3.80;;;;;;;;;;5043722;28;20040;-57
2023/04/14 02:38:35;;;;;;;13.32;4.25;;;;;;;;;;5042928;28;20029;-58
2023/04/14 02:41:10;;;;;;;10.90;4.05;;;;;;;;;;5038892;28;20048;-57
2023/04/14 02:43:43;;;;;;;14.65;3.38;;;;;;;;;;5039033;28;20025;-58
2023/04/14 02:46:11;;;;;;;14.23;3.60;;;;;;;;;;5038705;28;20036;-59
2023/04/14 02:48:41;;;;;;;13.77;4.20;;;;;;;;;;5042074;28;20612;-57
2023/04/14 02:51:11;;;;;;;12.02;4.13;;;;;;;;;;5029163;28;20045;-57
2023/04/14 02:53:37;;;;;;;9.18;3.90;;;;;;;;;;5045967;28;20032;-58
2023/04/14 02:56:18;;;;;;;10.88;3.17;;;;;;;;;;5041438;28;20052;-58
2023/04/14 02:58:46;;;;;;;16.17;3.75;;;;;;;;;;5032837;28;20033;-58
2023/04/14 03:01:15;;;;;;;17.67;4.55;;;;;;;;;;5049053;28;20402;-57
2023/04/14 03:03:42;;;;;;;16.30;4.30;;;;;;;;;;5046350;28;20402;-59
2023/04/14 03:06:14;;;;;;;10.98;3.80;;;;;;;;;;5029762;28;20029;-58
2023/04/14 03:08:41;;;;;;;11.50;3.60;;;;;;;;;;5040331;28;20045;-58
2023/04/14 03:11:10;;;;;;;12.93;4.13;;;;;;;;;;5037731;28;20414;-58
2023/04/14 03:13:39;;;;;;;;;;;;;;;;;;5046301;28;20517;-58
2023/04/14 03:16:06;;;;;;;10.32;3.63;;;;;;;;;;5050156;28;19920;-57
2023/04/14 03:18:34;;;;;;;10.85;4.22;;;;;;;;;;5047334;28;20037;-58
2023/04/14 03:21:01;;;;;;;11.10;3.17;;;;;;;;;;5042788;28;20036;-57
2023/04/14 03:23:30;;;;;;;15.85;3.75;;;;;;;;;;5045860;28;20079;-59
2023/04/14 03:26:02;;;;;;;13.73;3.28;;;;;;;;;;5034576;28;20447;-57
2023/04/14 03:28:31;;;;;;;11.57;3.97;;;;;;;;;;5040287;28;20055;-57
2023/04/14 03:31:02;;;;;;;10.55;3.88;;;;;;;;;;5040032;28;20025;-58
2023/04/14 03:33:37;;;;;;;11.48;4.45;;;;;;;;;;5035979;28;20042;-57
2023/04/14 03:36:06;;;;;;;14.43;3.42;;;;;;;;;;5024805;28;20048;-57
2023/04/14 03:38:34;;;;;;;6.82;3.38;;;;;;;;;;5033853;28;20029;-58
2023/04/14 03:41:04;;;;;;;;;;;;;;;;;;5040635;28;20040;-57
2023/04/14 03:43:32;;;;;;;8.38;2.85;;;;;;;;;;5044743;28;19913;-57
2023/04/14 03:46:04;;;;;;;11.40;3.38;;;;;;;;;;5047607;28;20037;-57
2023/04/14 03:48:37;;;;;;;9.73;3.33;;;;;;;;;;5046872;28;20025;-56
2023/04/14 03:51:07;;;;;;;11.23;3.60;;;;;;;;;;5035982;28;20041;-57
2023/04/14 03:53:35;;;;;;;13.52;4.80;;;;;;;;;;5034604;28;20043;-57
2023/04/14 03:56:04;;;;;;;13.35;3.63;;;;;;;;;;5044329;28;20032;-58
2023/04/14 03:58:31;;;;;;;8.95;3.08;;;;;;;;;;5038163;28;20581;-57
2023/04/14 04:01:01;;;;;;;11.88;3.30;;;;;;;;;;5039704;28;20406;-58
2023/04/14 04:03:28;;;;;;;8.93;2.90;;;;;;;;;;5042543;28;20497;-58
2023/04/14 04:05:55;;;;;;;14.35;4.32;;;;;;;;;;5047049;28;20044;-58
2023/04/14 04:08:22;;;;;;;10.75;3.00;;;;;;;;;;5044141;28;20388;-58
2023/04/14 04:10:50;;;;;;;9.77;3.35;;;;;;;;;;5044773;28;20040;-58
2023/04/14 04:13:20;;;;;;;10.57;3.08;;;;;;;;;;5039112;28;20433;-58
2023/04/14 04:15:49;;;;;;;8.23;3.10;;;;;;;;;;5044689;28;20037;-58
2023/04/14 04:18:17;;;;;;;10.75;3.53;;;;;;;;;;5035768;28;20051;-58
2023/04/14 04:20:45;;;;;;;16.33;4.10;;;;;;;;;;5037713;28;20033;-57
2023/04/14 04:23:13;;;;;;;10.60;3.65;;;;;;;;;;5044644;28;20036;-58
2023/04/14 04:25:40;;;;;;;9.15;3.63;;;;;;;;;;5047246;28;20410;-57
2023/04/14 04:28:15;;;;;;;15.95;5.28;;;;;;;;;;5043467;28;20040;-57
2023/04/14 04:30:44;;;;;;;15.93;5.57;;;;;;;;;;5044700;28;20476;-57
2023/04/14 04:33:12;;;;;;;9.57;3.40;;;;;;;;;;5043716;28;20040;-57
2023/04/14 04:35:41;;;;;;;10.75;3.28;;;;;;;;;;5037631;28;20502;-57
2023/04/14 04:38:10;;;;;;;7.40;3.15;;;;;;;;;;5035480;28;20411;-58
2023/04/14 04:40:38;;;;;;;14.82;3.90;;;;;;;;;;5045283;28;20438;-57
2023/04/14 04:43:08;;;;;;;9.50;3.13;;;;;;;;;;5042948;28;20080;-58
2023/04/14 04:45:52;;;;;;;12.15;3.60;;;;;;;;;;5041365;28;20029;-57
2023/04/14 04:48:18;;;;;;;14.20;4.78;;;;;;;;;;5047521;28;20100;-57
2023/04/14 04:50:44;;;;;;;19.73;5.45;;;;;;;;;;5045808;28;20037;-57
2023/04/14 04:53:11;;;;;;;11.85;3.80;;;;;;;;;;5043226;28;20044;-57
2023/04/14 04:55:37;;;;;;;11.40;3.03;;;;;;;;;;5038589;28;20419;-58
2023/04/14 04:58:03;;;;;;;13.52;3.55;;;;;;;;;;5037735;28;20048;-57
2023/04/14 05:00:29;;;;;;;9.35;2.53;;;;;;;;;;5039548;28;20056;-57
2023/04/14 05:02:55;;;;;;;10.90;3.00;;;;;;;;;;5047615;28;20025;-57
2023/04/14 05:05:22;;;;;;;8.05;2.90;;;;;;;;;;5041478;28;20037;-57
2023/04/14 05:07:48;;;;;;;8.38;3.40;;;;;;;;;;5040530;28;20041;-56
2023/04/14 05:10:14;;;;;;;12.48;3.20;;;;;;;;;;5039293;28;20038;-55
2023/04/14 05:12:40;;;;;;;7.40;3.63;;;;;;;;;;5039463;28;20044;-56
2023/04/14 05:15:09;;;;;;;9.48;3.00;;;;;;;;;;5036376;28;20058;-57
2023/04/14 05:17:36;;;;;;;9.23;3.42;;;;;;;;;;5038648;28;20045;-56
2023/04/14 05:20:04;;;;;;;10.07;3.25;;;;;;;;;;5039870;28;20064;-57
2023/04/14 05:22:32;;;;;;;6.70;3.40;;;;;;;;;;5041165;28;20044;-55
2023/04/14 05:24:59;;;;;;;10.03;4.00;;;;;;;;;;5032785;28;20033;-56
2023/04/14 05:27:25;;;;;;;8.55;2.92;;;;;;;;;;5036527;28;20037;-56
2023/04/14 05:29:51;;;;;;;8.98;3.03;;;;;;;;;;5031853;28;20056;-57
2023/04/14 05:32:29;;;;;;;17.95;3.00;;;;;;;;;;5037562;28;20677;-57
2023/04/14 05:34:56;;;;;;;13.43;2.95;;;;;;;;;;5037480;28;20053;-57
2023/04/14 05:37:23;;;;;;;12.38;2.90;;;;;;;;;;5036191;28;20028;-57
2023/04/14 05:39:49;;;;;;;7.50;2.67;;;;;;;;;;5038778;28;20029;-57
2023/04/14 05:42:15;;;;;;;7.55;2.83;;;;;;;;;;5037653;28;20040;-56
2023/04/14 05:44:41;;;;;;;8.40;2.58;;;;;;;;;;5042217;28;20052;-57
2023/04/14 05:47:07;;;;;;;9.43;3.75;;;;;;;;;;5041950;28;20391;-57
2023/04/14 05:49:33;;;;;;;12.15;3.65;;;;;;;;;;5038198;28;20041;-56
2023/04/14 05:52:00;;;;;;;7.93;2.70;;;;;;;;;;5039222;28;20037;-57
2023/04/14 05:54:26;;;;;;;10.80;2.53;;;;;;;;;;5043695;28;20039;-57
2023/04/14 05:56:52;;;;;;;8.98;2.90;;;;;;;;;;5036774;28;20049;-57
2023/04/14 05:59:18;;;;;;;7.03;2.58;;;;;;;;;;5036037;28;20036;-57
2023/04/14 06:01:44;;;;;;;12.02;2.78;;;;;;;;;;5039405;28;20049;-56
2023/04/14 06:04:10;;;;;;;13.10;2.63;;;;;;;;;;5038661;28;20040;-57
2023/04/14 06:06:37;;;;;;;10.55;2.60;;;;;;;;;;5043574;28;20506;-58
2023/04/14 06:09:03;;;;;;;8.32;3.03;;;;;;;;;;5036087;28;20128;-56
2023/04/14 06:11:29;;;;;;;9.98;2.97;;;;;;;;;;5040092;28;20032;-57
2023/04/14 06:13:55;;;;;;;8.77;2.63;;;;;;;;;;5034926;28;20403;-56
2023/04/14 06:16:21;;;;;;;9.18;2.45;;;;;;;;;;5035853;28;20033;-57
2023/04/14 06:18:47;;;;;;;12.35;2.50;;;;;;;;;;5036305;28;20470;-54
2023/04/14 06:21:13;;;;;;;8.35;1.98;;;;;;;;;;5035364;28;20036;-56
2023/04/14 06:23:39;;;;;;;8.23;2.08;;;;;;;;;;5040674;28;20037;-57
2023/04/14 06:26:06;;;;;;;5.57;2.15;;;;;;;;;;5042308;28;20506;-56
2023/04/14 06:28:32;;;;;;;8.18;2.33;;;;;;;;;;5041144;28;20065;-56
2023/04/14 06:30:59;;;;;;;25.05;3.38;;;;;;;;;;5036479;28;20049;-56
2023/04/14 06:33:25;;;;;;;8.68;1.92;;;;;;;;;;5035324;28;20411;-56
2023/04/14 06:35:51;;;;;;;15.05;2.38;;;;;;;;;;5037876;28;20386;-57
2023/04/14 06:38:18;;;;;;;12.10;3.47;;;;;;;;;;5040652;28;20025;-57
2023/04/14 06:40:44;;;;;;;9.90;2.60;;;;;;;;;;5033862;28;20060;-57
2023/04/14 06:43:10;;;;;;;12.32;3.20;;;;;;;;;;5041789;28;20025;-60
2023/04/14 06:45:37;;;;;;;23.58;6.50;;;;;;;;;;5040615;28;20344;-59
2023/04/14 06:48:03;;;;;;;17.02;5.20;;;;;;;;;;5033802;28;20036;-59
2023/04/14 06:50:29;;;;;;;8.32;3.22;;;;;;;;;;5038584;28;20033;-60
2023/04/14 06:52:55;;;;;;;11.23;3.63;;;;;;;;;;5043006;28;20033;-59
2023/04/14 06:55:21;;;;;;;9.80;3.50;;;;;;;;;;5035329;28;20045;-59
2023/04/14 06:57:47;;;;;;;8.45;2.22;;;;;;;;;;5043849;28;20125;-59
2023/04/14 07:00:14;;;;;;;9.90;2.38;;;;;;;;;;5039332;28;20040;-59
2023/04/14 07:02:40;;;;;;;5.15;2.25;;;;;;;;;;5038304;28;20060;-59
2023/04/14 07:05:06;;;;;;;12.38;3.30;;;;;;;;;;5033623;28;20052;-59
2023/04/14 07:07:35;;;;;;;9.27;2.45;;;;;;;;;;5041736;28;20128;-60
2023/04/14 07:10:01;;;;;;;9.48;2.42;;;;;;;;;;5042251;28;20398;-60
2023/04/14 07:12:27;;;;;;;6.15;2.42;;;;;;;;;;5045098;28;20119;-59
2023/04/14 07:14:53;;;;;;;8.23;2.92;;;;;;;;;;5036907;28;20045;-59
2023/04/14 07:17:19;;;;;;;9.95;2.60;;;;;;;;;;5034817;28;20052;-60
2023/04/14 07:19:45;;;;;;;6.38;2.35;;;;;;;;;;5037621;28;20036;-60
2023/04/14 07:22:12;;;;;;;11.43;2.40;;;;;;;;;;5046169;28;20043;-60
2023/04/14 07:24:38;;;;;;;10.93;2.85;;;;;;;;;;5040606;28;20112;-59
2023/04/14 07:27:06;;;;;;;7.38;2.70;;;;;;;;;;5032919;28;20037;-59
2023/04/14 07:29:33;;;;;;;10.75;3.75;;;;;;;;;;5030295;28;20048;-58
2023/04/14 07:32:00;;;;;;;13.93;3.08;;;;;;;;;;5033849;28;20388;-60
2023/04/14 07:34:26;;;;;;;10.32;2.58;;;;;;;;;;5034827;28;20052;-59
2023/04/14 07:36:52;;;;;;;8.25;2.58;;;;;;;;;;5037739;28;20045;-59
2023/04/14 07:39:19;;;;;;;14.23;3.25;;;;;;;;;;5043452;28;20056;-59
2023/04/14 07:41:45;;;;;;;12.38;2.97;;;;;;;;;;5037717;28;20549;-59
2023/04/14 07:44:12;;;;;;;8.57;3.42;;;;;;;;;;5044027;28;20053;-59
2023/04/14 07:46:39;;;;;;;10.25;3.60;;;;;;;;;;5044470;28;20415;-60
2023/04/14 07:49:05;;;;;;;14.93;3.08;;;;;;;;;;5040186;28;20044;-60
2023/04/14 07:51:31;;;;;;;7.75;2.58;;;;;;;;;;5038944;28;20045;-59
2023/04/14 07:53:59;;;;;;;10.65;2.80;;;;;;;;;;5039466;28;20036;-60
2023/04/14 07:56:25;;;;;;;11.95;3.88;;;;;;;;;;5036169;28;20049;-59
2023/04/14 07:58:51;;;;;;;10.98;3.53;;;;;;;;;;5041801;28;20044;-59
2023/04/14 08:01:17;;;;;;;13.80;3.67;;;;;;;;;;5036494;28;20053;-59
2023/04/14 08:03:44;;;;;;;13.70;3.58;;;;;;;;;;5038069;28;20041;-61
2023/04/14 08:06:10;;;;;;;8.05;3.67;;;;;;;;;;5035954;28;20056;-59
2023/04/14 08:08:36;;;;;;;12.77;3.38;;;;;;;;;;5035498;28;20415;-58
2023/04/14 08:11:02;;;;;;;14.55;3.90;;;;;;;;;;5031583;28;20029;-59
2023/04/14 08:13:28;;;;;;;18.00;3.53;;;;;;;;;;5032148;28;20045;-59
2023/04/14 08:15:55;;;;;;;15.35;3.70;;;;;;;;;;5041509;28;20548;-59
2023/04/14 08:18:21;;;;;;;12.20;3.47;;;;;;;;;;5042588;28;20045;-59
2023/04/14 08:20:48;;;;;;;11.85;4.13;;;;;;;;;;5037337;28;20132;-58
2023/04/14 08:23:15;;;;;;;12.35;3.50;;;;;;;;;;5041119;28;20495;-58
2023/04/14 08:25:41;;;;;;;12.10;3.25;;;;;;;;;;5030687;28;20048;-59
2023/04/14 08:28:07;;;;;;;12.40;3.65;;;;;;;;;;5036842;28;20097;-59
2023/04/14 08:30:33;;;;;;;12.90;3.58;;;;;;;;;;5028476;28;20053;-59
2023/04/14 08:33:00;;;;;;;16.23;3.70;;;;;;;;;;5017299;28;20064;-60
2023/04/14 08:35:26;;;;;;;15.85;3.60;;;;;;;;;;5042597;28;20049;-59
2023/04/14 08:37:52;;;;;;;11.68;3.42;;;;;;;;;;5041694;28;20057;-59
2023/04/14 08:40:21;;;;;;;14.05;3.53;;;;;;;;;;5035915;28;20048;-59
2023/04/14 08:42:47;;;;;;;8.82;3.58;;;;;;;;;;5041766;28;20423;-59
2023/04/14 08:45:13;;;;;;;11.57;3.20;;;;;;;;;;5036461;28;20041;-59
2023/04/14 08:47:44;;;;;;;13.13;3.85;;;;;;;;;;5039036;28;20053;-58
2023/04/14 08:50:15;;;;;;;17.98;3.60;;;;;;;;;;5030970;28;20052;-60
2023/04/14 08:52:44;;;;;;;14.30;4.35;;;;;;;;;;5038350;28;20056;-59
2023/04/14 08:55:11;;;;;;;13.45;3.47;;;;;;;;;;5041024;28;20549;-61
2023/04/14 08:57:37;;;;;;;11.30;2.97;;;;;;;;;;5037140;28;20045;-60
2023/04/14 09:00:04;;;;;;;8.82;2.70;;;;;;;;;;5039895;28;20036;-60
2023/04/14 09:02:34;;;;;;;10.18;3.20;;;;;;;;;;5040727;28;20034;-59
2023/04/14 09:05:00;;;;;;;;;;;;;;;;;;5038121;28;20043;-59
2023/04/14 09:07:27;;;;;;;17.38;4.25;;;;;;;;;;5040243;28;19916;-59
2023/04/14 09:09:55;;;;;;;18.67;3.72;;;;;;;;;;5039602;28;20445;-59
2023/04/14 09:12:22;;;;;;;8.23;2.70;;;;;;;;;;5037372;28;20029;-59
2023/04/14 09:14:49;;;;;;;10.05;3.75;;;;;;;;;;5041347;28;20487;-59
2023/04/14 09:17:16;;;;;;;13.57;3.10;;;;;;;;;;5046464;28;20040;-59
2023/04/14 09:19:42;;;;;;;12.65;3.28;;;;;;;;;;5039152;28;20039;-60
2023/04/14 09:22:09;;;;;;;16.38;4.00;;;;;;;;;;5034523;28;20052;-58
2023/04/14 09:24:35;;;;;;;13.55;3.53;;;;;;;;;;5032683;28;20044;-59
2023/04/14 09:27:06;;;;;;;11.35;3.45;;;;;;;;;;5033196;28;20033;-58
2023/04/14 09:29:33;;;;;;;9.48;3.10;;;;;;;;;;5030734;28;20415;-59
2023/04/14 09:31:59;;;;;;;12.95;4.20;;;;;;;;;;5039880;28;20040;-60
2023/04/14 09:34:25;;;;;;;12.27;2.95;;;;;;;;;;5039408;28;20037;-60
2023/04/14 09:37:06;;;;;;;9.52;2.83;;;;;;;;;;5027582;28;20046;-61
2023/04/14 09:39:33;;;;;;;11.55;3.00;;;;;;;;;;5043821;28;20410;-60
2023/04/14 09:42:01;;;;;;;13.70;3.10;;;;;;;;;;5032935;28;20051;-58
2023/04/14 09:44:27;;;;;;;10.48;2.88;;;;;;;;;;5036063;28;20037;-59
2023/04/14 09:47:01;;;;;;;11.23;2.83;;;;;;;;;;5037165;28;20036;-60
2023/04/14 09:49:28;;;;;;;12.50;2.95;;;;;;;;;;5035629;28;20046;-60
2023/04/14 09:52:05;;;;;;;11.77;2.90;;;;;;;;;;5040187;28;20037;-60
2023/04/14 09:54:31;;;;;;;11.73;3.78;;;;;;;;;;5035618;28;20040;-60
2023/04/14 09:56:57;;;;;;;15.32;3.63;;;;;;;;;;5042884;28;20051;-59
2023/04/14 09:59:34;;;;;;;14.98;3.47;;;;;;;;;;5040237;28;20037;-62
2023/04/14 10:02:04;;;;;;;9.73;2.92;;;;;;;;;;5045225;28;20036;-60
2023/04/14 10:04:30;;;;;;;17.50;5.18;;;;;;;;;;5040262;28;20048;-60
2023/04/14 10:06:57;;;;;;;17.17;4.82;;;;;;;;;;5036211;28;20068;-60
2023/04/14 10:09:26;;;;;;;12.60;3.70;;;;;;;;;;5043143;28;20899;-60
2023/04/14 10:12:13;;;;;;;13.85;2.80;;;;;;;;;;5038945;28;20054;-60
2023/04/14 10:14:40;;;;;;;11.18;2.72;;;;;;;;;;5038121;28;20041;-61
2023/04/14 10:17:07;;;;;;;11.88;2.90;;;;;;;;;;5037260;28;20089;-60
2023/04/14 10:19:35;;;;;;;16.30;4.03;;;;;;;;;;5034905;28;20041;-61
2023/04/14 10:22:01;;;;;;;7.93;3.33;;;;;;;;;;5036729;28;20191;-61
2023/04/14 10:24:27;;;;;;;12.88;3.65;;;;;;;;;;5041165;28;20483;-61
2023/04/14 10:26:54;;;;;;;7.38;2.97;;;;;;;;;;5034902;28;20048;-62
2023/04/14 10:29:21;;;;;;;10.70;3.15;;;;;;;;;;5035716;28;20136;-61
2023/04/14 10:31:54;;;;;;;8.48;2.85;;;;;;;;;;5035377;28;20045;-61
2023/04/14 10:34:23;;;;;;;20.30;3.95;;;;;;;;;;5037297;28;20048;-60
2023/04/14 10:36:49;;;;;;;13.20;4.05;;;;;;;;;;5044777;28;20399;-61
2023/04/14 10:39:25;;;;;;;13.05;3.22;;;;;;;;;;5042431;28;20053;-59
2023/04/14 10:41:51;;;;;;;13.52;3.50;;;;;;;;;;5034493;28;20035;-62
2023/04/14 10:44:26;;;;;;;14.60;3.35;;;;;;;;;;5033103;28;20029;-60
2023/04/14 10:46:55;;;;;;;8.90;2.72;;;;;;;;;;5039728;28;20370;-61
2023/04/14 10:49:24;;;;;;;7.50;2.63;;;;;;;;;;5043672;28;20041;-61
2023/04/14 10:51:51;;;;;;;;;;;;;;;;;;5035035;28;20673;-60
2023/04/14 10:54:20;;;;;;;8.32;2.72;;;;;;;;;;5040744;28;19924;-61
2023/04/14 10:57:07;;;;;;;10.10;2.97;;;;;;;;;;5040394;28;20033;-61
2023/04/14 10:59:33;;;;;;;9.40;2.58;;;;;;;;;;5038935;28;20045;-60
2023/04/14 11:01:59;;;;;;;11.88;4.22;;;;;;;;;;5042242;28;20043;-61
2023/04/14 11:04:25;;;;;;;6.20;2.50;;;;;;;;;;5034364;28;20053;-60
2023/04/14 11:06:53;;;;;;;7.70;2.60;;;;;;;;;;5040264;28;20053;-61
2023/04/14 11:09:32;;;;;;;9.70;2.50;;;;;;;;;;5038554;28;20049;-61
2023/04/14 11:12:23;;;;;;;12.00;2.67;;;;;;;;;;5041965;28;20029;-60
2023/04/14 11:14:54;;;;;;;11.70;3.17;;;;;;;;;;5038166;28;20507;-60
2023/04/14 11:17:21;;;;;;;7.35;2.67;;;;;;;;;;5030438;28;20495;-60
2023/04/14 11:19:52;;;;;;;8.15;2.40;;;;;;;;;;5033525;28;20507;-61
2023/04/14 11:22:41;;;;;;;7.05;2.83;;;;;;;;;;5039191;28;20051;-61
2023/04/14 11:25:14;;;;;;;13.73;2.73;;;;;;;;;;5033355;28;20055;-62
2023/04/14 11:27:41;;;;;;;10.65;2.47;;;;;;;;;;5041677;28;20060;-61
2023/04/14 11:30:13;;;;;;;8.02;2.42;;;;;;;;;;5031870;28;20430;-62
2023/04/14 11:32:51;;;;;;;9.45;2.35;;;;;;;;;;5036781;28;20037;-61
2023/04/14 11:35:19;;;;;;;4.60;2.28;;;;;;;;;;5037438;28;20041;-61
2023/04/14 11:37:45;;;;;;;9.20;2.97;;;;;;;;;;5039924;28;20050;-59
2023/04/14 11:40:13;;;;;;;9.85;2.58;;;;;;;;;;5041224;28;20375;-61
2023/04/14 11:42:46;;;;;;;7.72;2.53;;;;;;;;;;5034180;28;20041;-61
2023/04/14 11:45:14;;;;;;;7.88;2.50;;;;;;;;;;5040576;28;20051;-61
2023/04/14 11:47:57;;;;;;;7.72;2.38;;;;;;;;;;5036244;28;20056;-60
2023/04/14 11:50:24;;;;;;;10.43;2.45;;;;;;;;;;5033807;28;20036;-61
2023/04/14 11:52:51;;;;;;;7.88;2.42;;;;;;;;;;5037716;28;20064;-61
2023/04/14 11:55:17;;;;;;;10.93;3.00;;;;;;;;;;5035197;28;20056;-61
2023/04/14 11:57:44;;;;;;;12.73;2.72;;;;;;;;;;5034015;28;20503;-61
2023/04/14 12:00:12;;;;;;;12.10;2.97;;;;;;;;;;5038084;28;20036;-62
2023/04/14 12:02:42;;;;;;;8.48;2.55;;;;;;;;;;5039404;28;20036;-61
2023/04/14 12:05:08;;;;;;;12.90;2.53;;;;;;;;;;5036676;28;20029;-60
2023/04/14 12:07:34;;;;;;;9.65;2.60;;;;;;;;;;5044670;28;20056;-61
2023/04/14 12:10:04;;;;;;;7.72;2.50;;;;;;;;;;5039102;28;20037;-61
2023/04/14 12:12:31;;;;;;;;;;;;;;;;;;5042033;28;20072;-61
2023/04/14 12:14:58;;;;;;;5.70;2.10;;;;;;;;;;5029345;28;19925;-61
2023/04/14 12:17:24;;;;;;;5.00;2.20;;;;;;;;;;5040393;28;20044;-61
2023/04/14 12:19:50;;;;;;;4.97;2.08;;;;;;;;;;5032958;28;20036;-62
2023/04/14 12:22:27;;;;;;;4.60;2.35;;;;;;;;;;5032467;28;20060;-61
2023/04/14 12:24:55;;;;;;;7.20;2.50;;;;;;;;;;5032545;28;20025;-61
2023/04/14 12:27:23;;;;;;;10.32;2.67;;;;;;;;;;5035503;28;20029;-61
2023/04/14 12:29:50;;;;;;;5.55;2.38;;;;;;;;;;5038739;28;20444;-62
2023/04/14 12:32:17;;;;;;;7.43;2.50;;;;;;;;;;5043228;28;20033;-61
2023/04/14 12:34:56;;;;;;;10.65;2.67;;;;;;;;;;5038676;28;20052;-60
2023/04/14 12:37:25;;;;;;;6.53;2.75;;;;;;;;;;5043383;28;20057;-61
2023/04/14 12:40:03;;;;;;;9.55;3.08;;;;;;;;;;5041223;28;20535;-60
2023/04/14 12:42:44;;;;;;;9.45;2.38;;;;;;;;;;5040723;28;20426;-59
2023/04/14 12:45:10;;;;;;;7.28;2.30;;;;;;;;;;5036717;28;20052;-60
2023/04/14 12:47:37;;;;;;;8.73;2.42;;;;;;;;;;5042065;28;20034;-61
2023/04/14 12:50:24;;;;;;;6.53;2.15;;;;;;;;;;5043927;28;20052;-61
2023/04/14 12:52:51;;;;;;;9.68;2.42;;;;;;;;;;5038064;28;20034;-61
2023/04/14 12:55:19;;;;;;;10.10;2.45;;;;;;;;;;5034775;28;20052;-60
2023/04/14 12:57:45;;;;;;;4.57;2.00;;;;;;;;;;5036100;28;20048;-60
2023/04/14 13:00:12;;;;;;;6.90;2.20;;;;;;;;;;5041220;28;20047;-60
2023/04/14 13:02:39;;;;;;;8.90;2.40;;;;;;;;;;5042022;28;20033;-61
2023/04/14 13:05:05;;;;;;;6.22;1.98;;;;;;;;;;5037205;28;20517;-61
2023/04/14 13:07:32;;;;;;;9.63;2.60;;;;;;;;;;5040765;28;20029;-61
2023/04/14 13:09:58;;;;;;;9.27;2.22;;;;;;;;;;5036172;28;20505;-61
2023/04/14 13:12:24;;;;;;;9.73;2.50;;;;;;;;;;5043474;28;20041;-60
2023/04/14 13:14:51;;;;;;;6.85;2.00;;;;;;;;;;5019547;28;20042;-60
2023/04/14 13:17:18;;;;;;;4.43;1.73;;;;;;;;;;5035795;28;20052;-60
2023/04/14 13:19:44;;;;;;;10.38;2.10;;;;;;;;;;5035255;28;20045;-60
2023/04/14 13:22:11;;;;;;;9.13;2.30;;;;;;;;;;5028551;28;20033;-60
2023/04/14 13:24:38;;;;;;;7.70;2.17;;;;;;;;;;5035339;28;20045;-61
2023/04/14 13:27:05;;;;;;;6.10;2.10;;;;;;;;;;5029992;28;20044;-60
2023/04/14 13:29:32;;;;;;;8.80;2.00;;;;;;;;;;5035038;28;20049;-60
2023/04/14 13:31:59;;;;;;;8.68;2.35;;;;;;;;;;5036109;28;20497;-61
2023/04/14 13:34:26;;;;;;;4.90;1.77;;;;;;;;;;5031763;28;20070;-61
2023/04/14 13:36:56;;;;;;;5.40;1.80;;;;;;;;;;5036203;28;20412;-61
2023/04/14 13:39:22;;;;;;;6.40;1.83;;;;;;;;;;5037785;28;20037;-61
2023/04/14 13:41:48;;;;;;;6.63;2.15;;;;;;;;;;5040890;28;20049;-61
2023/04/14 13:44:14;;;;;;;5.20;1.80;;;;;;;;;;5039081;28;20045;-61
2023/04/14 13:46:41;;;;;;;10.07;1.92;;;;;;;;;;5038096;28;20040;-61
2023/04/14 13:49:07;;;;;;;4.35;1.80;;;;;;;;;;5038878;28;20036;-61
2023/04/14 13:51:33;;;;;;;8.85;2.17;;;;;;;;;;5040565;28;20049;-60
2023/04/14 13:53:59;;;;;;;4.90;1.83;;;;;;;;;;5041949;28;20513;-61
2023/04/14 13:56:26;;;;;;;4.15;1.85;;;;;;;;;;5037709;28;20053;-62
2023/04/14 13:58:52;;;;;;;4.80;1.73;;;;;;;;;;5040833;28;20056;-61
2023/04/14 14:01:19;;;;;;;6.18;1.60;;;;;;;;;;5034712;28;20498;-62
2023/04/14 14:03:46;;;;;;;2.63;1.35;;;;;;;;;;5046197;28;20029;-60
2023/04/14 14:06:13;;;;;;;4.53;1.70;;;;;;;;;;5046385;28;20052;-61
2023/04/14 14:08:40;;;;;;;4.70;1.20;;;;;;;;;;5040266;28;20037;-61
2023/04/14 14:11:08;;;;;;;6.72;1.52;;;;;;;;;;5040036;28;20029;-60
2023/04/14 14:13:37;;;;;;;4.97;1.40;;;;;;;;;;5040320;28;20430;-59
2023/04/14 14:16:07;;;;;;;4.28;1.38;;;;;;;;;;5034872;28;20029;-61
2023/04/14 14:18:35;;;;;;;7.38;1.33;;;;;;;;;;5040629;28;20414;-60
2023/04/14 14:21:01;;;;;;;5.38;1.40;;;;;;;;;;5018238;28;20521;-61
2023/04/14 14:23:27;;;;;;;4.47;1.33;;;;;;;;;;5036562;28;20024;-62
2023/04/14 14:25:54;;;;;;;6.85;1.83;;;;;;;;;;5040135;28;20050;-61
2023/04/14 14:28:20;;;;;;;2.90;0.98;;;;;;;;;;5036987;28;20497;-61
2023/04/14 14:30:47;;;;;;;5.40;1.48;;;;;;;;;;5037569;28;20490;-61
2023/04/14 14:33:13;;;;;;;5.63;1.90;;;;;;;;;;5043599;28;20422;-58
2023/04/14 14:35:40;;;;;;;2.25;1.10;;;;;;;;;;5041758;28;20040;-58
2023/04/14 14:38:06;;;;;;;1.95;1.10;;;;;;;;;;5041878;28;20056;-58
2023/04/14 14:40:32;;;;;;;3.55;1.50;;;;;;;;;;5043904;28;20085;-59
2023/04/14 14:42:58;;;;;;;5.70;1.58;;;;;;;;;;5036993;28;20044;-58
2023/04/14 14:45:24;;;;;;;9.88;2.83;;;;;;;;;;5039622;28;20052;-59